Time;durP1;ratioP1;P1;durP2;ratioP2;P2;SDS_P1;SDS_P2;PMS_P1;PMS_P2;Temp;Humidity;BMP_temperature;BMP_pressure;BME280_temperature;BME280_humidity;BME280_pressure;Samples;Min_cycle;Max_cycle;Signal;HPM_P1;HPM_P2
2024/04/04 00:01:12;;;;;;;11.73;7.87;;;;;;;-0.25;82.86;99974.56;1768726;81;27474;-67
2024/04/04 00:03:39;;;;;;;15.75;7.58;;;;;;;-0.26;83.33;99975.61;1768652;81;25608;-67
2024/04/04 00:06:06;;;;;;;12.07;7.25;;;;;;;-0.26;83.16;99974.28;1768713;81;25401;-67
2024/04/04 00:08:34;;;;;;;14.73;7.90;;;;;;;-0.27;83.03;99978.00;1768559;81;25661;-66
2024/04/04 00:11:17;;;;;;;12.58;7.45;;;;;;;-0.28;83.31;99976.38;1768744;81;25430;-66
2024/04/04 00:13:40;;;;;;;13.53;7.87;;;;;;;-0.30;83.14;99976.36;1767023;81;28054;-67
2024/04/04 00:16:06;;;;;;;14.13;7.78;;;;;;;-0.33;83.11;99974.19;1768663;81;25777;-67
2024/04/04 00:18:33;;;;;;;10.23;6.85;;;;;;;-0.35;83.16;99974.42;1768716;81;25532;-67
2024/04/04 00:21:03;;;;;;;11.08;7.25;;;;;;;-0.36;83.49;99969.35;1768673;81;25501;-67
2024/04/04 00:23:29;;;;;;;15.30;8.07;;;;;;;-0.40;83.30;99973.02;1769031;81;25438;-68
2024/04/04 00:25:56;;;;;;;14.30;7.35;;;;;;;-0.43;83.52;99967.66;1768695;81;27439;-67
2024/04/04 00:28:24;;;;;;;13.75;7.97;;;;;;;-0.45;83.40;99970.30;1768554;81;25290;-68
2024/04/04 00:30:50;;;;;;;13.55;7.53;;;;;;;-0.49;83.39;99971.84;1768717;81;25559;-67
2024/04/04 00:33:16;;;;;;;14.75;7.67;;;;;;;-0.53;83.24;99972.83;1768629;81;25569;-67
2024/04/04 00:35:42;;;;;;;14.18;8.63;;;;;;;-0.55;83.52;99966.95;1768750;81;25398;-67
2024/04/04 00:38:08;;;;;;;14.98;8.93;;;;;;;-0.55;83.56;99972.27;1768714;81;27499;-67
2024/04/04 00:40:38;;;;;;;14.98;9.25;;;;;;;-0.57;83.82;99967.20;1768660;81;25531;-67
2024/04/04 00:43:06;;;;;;;15.78;10.05;;;;;;;-0.58;83.55;99960.29;1768985;81;25537;-67
2024/04/04 00:45:36;;;;;;;16.40;10.23;;;;;;;-0.62;83.46;99966.33;1769143;81;26281;-68
2024/04/04 00:48:05;;;;;;;14.95;10.53;;;;;;;-0.63;83.24;99970.84;1769192;81;25658;-67
2024/04/04 00:50:34;;;;;;;16.25;10.90;;;;;;;-0.62;83.13;99976.41;1769531;81;27641;-67
2024/04/04 00:53:03;;;;;;;15.75;11.33;;;;;;;-0.62;83.00;99977.75;1769041;81;25726;-67
2024/04/04 00:55:29;;;;;;;17.63;10.97;;;;;;;-0.62;83.06;99978.28;1769014;81;25481;-67
2024/04/04 00:57:57;;;;;;;21.23;12.45;;;;;;;-0.62;83.47;99979.61;1768104;81;25611;-67
2024/04/04 01:00:24;;;;;;;19.40;11.93;;;;;;;-0.64;83.62;99981.70;1768972;81;25618;-67
2024/04/04 01:02:54;;;;;;;17.25;11.40;;;;;;;-0.65;83.94;99980.08;1768743;81;27908;-67
2024/04/04 01:05:20;;;;;;;15.70;11.05;;;;;;;-0.68;83.86;99976.08;1768779;81;25673;-67
2024/04/04 01:07:50;;;;;;;19.07;11.65;;;;;;;-0.70;83.85;99976.81;1768635;81;25435;-67
2024/04/04 01:10:17;;;;;;;;;;;;;;;-0.73;83.97;99975.17;1765622;81;25781;-67
2024/04/04 01:12:44;;;;;;;17.42;10.78;;;;;;;-0.74;84.20;99976.23;1763023;81;25626;-67
2024/04/04 01:15:12;;;;;;;18.87;10.35;;;;;;;-0.78;84.38;99978.57;1763105;81;27561;-67
2024/04/04 01:17:39;;;;;;;16.05;10.50;;;;;;;-0.79;84.63;99983.06;1762878;81;25532;-67
2024/04/04 01:20:09;;;;;;;15.58;10.50;;;;;;;-0.77;84.95;99986.30;1762987;81;25429;-67
2024/04/04 01:22:36;;;;;;;12.75;8.90;;;;;;;-0.78;85.02;99985.21;1763095;81;25388;-67
2024/04/04 01:25:06;;;;;;;15.38;9.75;;;;;;;-0.81;84.88;99975.86;1763111;81;25409;-67
2024/04/04 01:27:34;;;;;;;18.17;8.65;;;;;;;-0.81;85.17;99979.05;1763028;81;27469;-67
2024/04/04 01:30:01;;;;;;;16.87;9.20;;;;;;;-0.83;84.94;99976.63;1762988;81;25956;-67
2024/04/04 01:32:28;;;;;;;15.20;9.25;;;;;;;-0.83;84.87;99974.51;1762950;81;25606;-67
2024/04/04 01:34:54;;;;;;;14.80;9.43;;;;;;;-0.82;85.03;99978.75;1762940;81;26072;-67
2024/04/04 01:37:21;;;;;;;13.38;9.10;;;;;;;-0.82;85.50;99971.61;1762994;81;25423;-67
2024/04/04 01:39:48;;;;;;;15.30;9.60;;;;;;;-0.81;85.53;99975.86;1763008;81;28040;-67
2024/04/04 01:42:14;;;;;;;15.15;8.65;;;;;;;-0.81;85.59;99981.17;1762890;81;25454;-67
2024/04/04 01:44:43;;;;;;;15.28;9.60;;;;;;;-0.80;85.01;99987.28;1762956;81;25680;-67
2024/04/04 01:47:09;;;;;;;29.53;22.50;;;;;;;-0.79;84.94;99985.71;1763169;81;25534;-67
2024/04/04 01:49:37;;;;;;;14.63;8.65;;;;;;;-0.79;84.66;99982.27;1762956;81;25421;-67
2024/04/04 01:52:06;;;;;;;14.05;7.62;;;;;;;-0.78;84.83;99978.04;1762964;81;28153;-67
2024/04/04 01:54:32;;;;;;;10.00;7.35;;;;;;;-0.76;85.00;99986.56;1763012;81;25589;-68
2024/04/04 01:56:58;;;;;;;11.38;7.42;;;;;;;-0.75;85.38;99984.70;1762979;81;25464;-69
2024/04/04 01:59:25;;;;;;;10.13;7.10;;;;;;;-0.76;85.16;99983.91;1762865;81;25576;-69
2024/04/04 02:01:51;;;;;;;10.60;7.35;;;;;;;-0.73;85.07;99985.30;1762993;81;25481;-69
2024/04/04 02:04:17;;;;;;;9.53;7.05;;;;;;;-0.72;85.09;99980.25;1762948;81;27517;-68
2024/04/04 02:06:43;;;;;;;10.93;7.25;;;;;;;-0.70;85.77;99980.00;1762830;81;25592;-69
2024/04/04 02:09:10;;;;;;;11.60;7.47;;;;;;;-0.69;85.44;99973.13;1758457;81;25567;-68
2024/04/04 02:11:39;;;;;;;13.48;7.65;;;;;;;-0.67;85.86;99970.23;1750759;82;25605;-68
2024/04/04 02:14:05;;;;;;;12.20;7.78;;;;;;;-0.66;85.87;99971.85;1750987;82;25456;-68
2024/04/04 02:16:32;;;;;;;9.55;7.30;;;;;;;-0.66;85.72;99975.30;1750808;81;27490;-68
2024/04/04 02:18:58;;;;;;;11.97;7.67;;;;;;;-0.64;85.41;99975.06;1750763;82;25471;-68
2024/04/04 02:21:24;;;;;;;11.12;6.80;;;;;;;-0.64;85.31;99974.53;1750836;82;25490;-68
2024/04/04 02:23:50;;;;;;;10.10;6.83;;;;;;;-0.62;85.46;99972.97;1750741;82;25511;-68
2024/04/04 02:26:16;;;;;;;10.85;7.15;;;;;;;-0.60;85.57;99978.83;1750764;82;25554;-68
2024/04/04 02:28:42;;;;;;;11.15;7.28;;;;;;;-0.60;85.37;99971.66;1750765;82;27494;-68
2024/04/04 02:31:10;;;;;;;13.72;7.92;;;;;;;-0.58;85.72;99966.94;1750807;82;25402;-67
2024/04/04 02:33:37;;;;;;;10.65;7.37;;;;;;;-0.57;85.80;99960.55;1750785;81;25620;-67
2024/04/04 02:36:06;;;;;;;11.70;7.40;;;;;;;-0.55;86.01;99960.31;1750719;82;25644;-67
2024/04/04 02:38:33;;;;;;;11.80;8.28;;;;;;;-0.53;86.05;99958.21;1750935;82;25554;-67
2024/04/04 02:40:59;;;;;;;10.72;7.78;;;;;;;-0.51;86.26;99961.95;1750806;82;27914;-67
2024/04/04 02:43:27;;;;;;;12.07;8.05;;;;;;;-0.49;86.35;99963.87;1750838;82;25675;-67
2024/04/04 02:46:06;;;;;;;10.93;7.50;;;;;;;-0.49;86.44;99959.89;1750927;82;25573;-67
2024/04/04 02:48:34;;;;;;;11.45;6.87;;;;;;;-0.48;86.21;99968.12;1750747;82;25577;-65
2024/04/04 02:51:00;;;;;;;9.38;6.50;;;;;;;-0.45;86.35;99966.31;1750839;82;25207;-66
2024/04/04 02:53:26;;;;;;;11.03;7.42;;;;;;;-0.45;86.30;99963.66;1750840;82;27549;-65
2024/04/04 02:55:56;;;;;;;9.75;6.92;;;;;;;-0.44;86.50;99965.27;1750742;82;25412;-65
2024/04/04 02:58:26;;;;;;;11.03;8.30;;;;;;;-0.43;86.66;99955.70;1750848;82;25573;-67
2024/04/04 03:00:54;;;;;;;14.93;7.72;;;;;;;-0.40;86.80;99958.41;1750926;82;26059;-66
2024/04/04 03:03:21;;;;;;;12.03;7.78;;;;;;;-0.38;86.77;99949.13;1750974;82;25593;-67
2024/04/04 03:05:50;;;;;;;11.85;7.33;;;;;;;-0.35;87.07;99955.03;1750780;82;28487;-66
2024/04/04 03:08:18;;;;;;;10.65;7.80;;;;;;;-0.33;87.19;99955.05;1750709;82;25344;-66
2024/04/04 03:10:45;;;;;;;11.28;7.75;;;;;;;-0.33;87.01;99951.06;1761468;81;25398;-66
2024/04/04 03:13:12;;;;;;;9.70;6.87;;;;;;;-0.30;87.12;99951.11;1762824;81;25478;-66
2024/04/04 03:15:41;;;;;;;11.00;7.50;;;;;;;-0.27;87.40;99947.97;1762883;81;25599;-66
2024/04/04 03:18:09;;;;;;;12.60;8.48;;;;;;;-0.26;87.26;99960.19;1763036;81;27468;-67
2024/04/04 03:20:35;;;;;;;11.83;7.53;;;;;;;-0.25;87.25;99967.12;1762845;81;25615;-67
2024/04/04 03:23:01;;;;;;;10.60;7.60;;;;;;;-0.24;87.21;99968.72;1762858;81;25393;-67
2024/04/04 03:25:27;;;;;;;13.68;8.20;;;;;;;-0.23;87.40;99958.38;1762861;81;25607;-67
2024/04/04 03:27:54;;;;;;;12.05;8.18;;;;;;;-0.21;87.48;99962.38;1762831;81;25545;-67
2024/04/04 03:30:20;;;;;;;12.10;8.05;;;;;;;-0.18;87.74;99964.30;1762888;81;27539;-66
2024/04/04 03:32:48;;;;;;;13.88;9.33;;;;;;;-0.15;87.79;99964.61;1762902;81;25705;-67
2024/04/04 03:35:18;;;;;;;12.98;8.08;;;;;;;-0.11;87.81;99960.39;1762879;81;25492;-66
2024/04/04 03:37:44;;;;;;;13.22;8.83;;;;;;;-0.07;87.92;99969.50;1762961;81;25593;-66
2024/04/04 03:40:11;;;;;;;14.55;9.03;;;;;;;-0.04;87.74;99965.53;1762910;81;25434;-66
2024/04/04 03:42:37;;;;;;;13.18;8.93;;;;;;;-0.01;87.67;99971.70;1762874;81;27544;-66
2024/04/04 03:45:06;;;;;;;14.35;8.65;;;;;;;0.00;87.40;99970.66;1762814;81;25556;-66
2024/04/04 03:47:36;;;;;;;17.67;10.58;;;;;;;0.03;87.22;99975.99;1762867;81;25393;-66
2024/04/04 03:50:05;;;;;;;17.27;11.35;;;;;;;0.03;86.89;99972.00;1762975;81;26212;-67
2024/04/04 03:52:33;;;;;;;19.73;10.05;;;;;;;0.04;86.75;99973.62;1763079;81;25408;-67
2024/04/04 03:55:00;;;;;;;19.42;11.48;;;;;;;0.04;86.73;99977.08;1762878;81;28426;-66
2024/04/04 03:57:29;;;;;;;21.05;13.22;;;;;;;0.04;86.94;99982.40;1762950;81;25636;-66
2024/04/04 03:59:55;;;;;;;20.40;12.50;;;;;;;0.03;86.98;99984.77;1762884;81;25405;-67
2024/04/04 04:02:24;;;;;;;21.97;12.73;;;;;;;0.03;87.12;99991.41;1762823;81;25637;-66
2024/04/04 04:04:50;;;;;;;21.37;12.68;;;;;;;0.04;87.30;99994.36;1763055;81;25573;-67
2024/04/04 04:07:19;;;;;;;22.87;13.80;;;;;;;0.05;87.42;99999.15;1762890;81;27482;-67
2024/04/04 04:09:45;;;;;;;22.10;14.33;;;;;;;0.05;87.45;100003.14;1758887;81;25893;-67
2024/04/04 04:12:12;;;;;;;22.00;13.13;;;;;;;0.05;87.40;100008.45;1750736;81;25588;-68
2024/04/04 04:14:40;;;;;;;21.17;13.10;;;;;;;0.07;87.45;100002.36;1750913;81;25585;-68
2024/04/04 04:17:06;;;;;;;25.65;13.78;;;;;;;0.07;87.21;99998.38;1750962;82;25474;-67
2024/04/04 04:19:34;;;;;;;22.77;13.98;;;;;;;0.08;87.40;99996.80;1750889;82;27531;-67
2024/04/04 04:22:01;;;;;;;26.68;15.20;;;;;;;0.09;87.41;99998.95;1750851;82;25419;-68
2024/04/04 04:24:27;;;;;;;25.92;13.75;;;;;;;0.06;87.25;100002.89;1750905;82;25579;-68
2024/04/04 04:26:55;;;;;;;21.62;14.80;;;;;;;0.03;87.20;99995.41;1750895;81;25500;-67
2024/04/04 04:29:21;;;;;;;26.62;14.33;;;;;;;0.03;87.31;99999.39;1750943;82;25666;-67
2024/04/04 04:31:47;;;;;;;23.57;13.68;;;;;;;0.02;87.36;99996.47;1750957;82;27478;-67
2024/04/04 04:34:14;;;;;;;21.65;13.35;;;;;;;0.03;87.40;100003.38;1750847;82;25656;-67
2024/04/04 04:36:55;;;;;;;23.80;13.80;;;;;;;0.02;87.32;100004.45;1750853;82;25527;-67
2024/04/04 04:39:23;;;;;;;25.23;14.35;;;;;;;0.01;87.42;100004.16;1749481;82;27859;-67
2024/04/04 04:41:49;;;;;;;23.53;13.30;;;;;;;0.01;87.48;100006.02;1751166;82;25394;-67
2024/04/04 04:44:16;;;;;;;22.75;14.18;;;;;;;0.03;87.84;100007.91;1750834;81;29788;-67
2024/04/04 04:46:44;;;;;;;21.27;13.38;;;;;;;0.06;87.92;100019.39;1750761;82;25393;-67
2024/04/04 04:49:11;;;;;;;25.37;14.13;;;;;;;0.09;88.12;100014.38;1750855;81;25560;-67
2024/04/04 04:51:40;;;;;;;22.37;13.48;;;;;;;0.14;88.34;100017.10;1750959;82;25585;-67
2024/04/04 04:54:08;;;;;;;21.25;13.32;;;;;;;0.19;88.55;100013.72;1750937;81;25407;-67
2024/04/04 04:56:35;;;;;;;23.02;12.75;;;;;;;0.25;88.96;100019.89;1750989;82;29674;-68
2024/04/04 04:59:01;;;;;;;20.50;13.48;;;;;;;0.33;89.17;100028.25;1750799;82;25567;-67
2024/04/04 05:01:27;;;;;;;24.23;13.72;;;;;;;0.40;89.50;100020.08;1750827;82;25371;-67
2024/04/04 05:03:56;;;;;;;23.05;14.90;;;;;;;0.49;89.73;100016.45;1750847;82;25522;-66
2024/04/04 05:06:23;;;;;;;26.17;14.58;;;;;;;0.58;89.89;100017.64;1751054;81;25477;-65
2024/04/04 05:08:51;;;;;;;21.33;12.40;;;;;;;0.66;90.15;100020.37;1750889;82;27483;-65
2024/04/04 05:11:18;;;;;;;21.30;13.83;;;;;;;0.74;90.24;100013.27;1765938;81;25431;-65
2024/04/04 05:13:44;;;;;;;24.20;13.95;;;;;;;0.84;90.36;100020.03;1768659;81;25448;-65
2024/04/04 05:16:11;;;;;;;22.45;14.33;;;;;;;0.93;90.67;100015.06;1768485;81;25576;-66
2024/04/04 05:18:37;;;;;;;23.30;15.68;;;;;;;1.05;91.14;100018.91;1768691;81;25647;-66
2024/04/04 05:21:06;;;;;;;22.27;13.95;;;;;;;1.16;91.31;100017.13;1768651;81;27594;-65
2024/04/04 05:23:34;;;;;;;22.75;13.35;;;;;;;1.28;91.42;100023.12;1768752;81;25531;-65
2024/04/04 05:26:03;;;;;;;21.05;12.88;;;;;;;1.38;91.47;100023.20;1768689;81;25618;-65
2024/04/04 05:28:30;;;;;;;21.62;12.33;;;;;;;1.49;91.32;100015.54;1768725;81;27032;-65
2024/04/04 05:31:00;;;;;;;18.85;12.00;;;;;;;1.60;91.38;100019.61;1768746;81;25569;-66
2024/04/04 05:33:28;;;;;;;21.87;12.40;;;;;;;1.66;90.72;100022.06;1768924;81;27489;-65
2024/04/04 05:35:54;;;;;;;23.20;12.20;;;;;;;1.71;90.22;100024.51;1768497;81;25544;-65
2024/04/04 05:38:21;;;;;;;20.92;12.73;;;;;;;1.79;90.08;100026.70;1768642;81;25533;-66
2024/04/04 05:40:49;;;;;;;21.60;12.10;;;;;;;1.85;90.25;100020.31;1768595;81;25661;-65
2024/04/04 05:43:15;;;;;;;20.12;11.55;;;;;;;1.92;89.55;100017.42;1768673;81;25471;-66
2024/04/04 05:45:44;;;;;;;22.37;12.33;;;;;;;2.00;89.80;100022.28;1768575;81;27489;-66
2024/04/04 05:48:14;;;;;;;18.87;11.57;;;;;;;2.11;90.35;100023.13;1768532;81;25548;-66
2024/04/04 05:50:40;;;;;;;27.17;13.08;;;;;;;2.20;89.91;100017.59;1768765;81;25635;-65
2024/04/04 05:53:07;;;;;;;21.30;12.37;;;;;;;2.31;90.39;100023.77;1768620;81;26096;-66
2024/04/04 05:55:33;;;;;;;19.10;11.50;;;;;;;2.43;90.39;100031.02;1768644;81;25453;-65
2024/04/04 05:57:59;;;;;;;23.52;12.23;;;;;;;2.51;89.96;100037.20;1768667;81;27460;-65
2024/04/04 06:00:25;;;;;;;20.48;11.78;;;;;;;2.60;89.63;100039.63;1768525;81;25414;-65
2024/04/04 06:02:53;;;;;;;25.20;12.90;;;;;;;2.66;89.13;100037.79;1768655;81;25457;-66
2024/04/04 06:05:19;;;;;;;21.60;13.95;;;;;;;2.71;88.45;100035.14;1768615;81;25569;-65
2024/04/04 06:07:48;;;;;;;23.05;13.60;;;;;;;2.74;88.06;100036.47;1768681;81;25659;-65
2024/04/04 06:10:14;;;;;;;27.35;14.28;;;;;;;2.78;87.69;100036.23;1768471;81;27516;-65
2024/04/04 06:12:42;;;;;;;23.62;13.20;;;;;;;2.85;87.92;100035.44;1768571;81;25498;-65
2024/04/04 06:15:08;;;;;;;19.15;13.18;;;;;;;2.96;88.62;100031.73;1768640;81;25394;-65
2024/04/04 06:17:34;;;;;;;24.45;13.20;;;;;;;3.09;88.42;100035.74;1768577;81;25596;-65
2024/04/04 06:20:00;;;;;;;19.67;11.57;;;;;;;3.20;88.21;100027.73;1768681;81;25622;-66
2024/04/04 06:22:26;;;;;;;18.50;11.43;;;;;;;3.28;87.63;100029.89;1768660;81;27482;-66
2024/04/04 06:24:56;;;;;;;18.50;11.43;;;;;;;3.34;87.65;100029.63;1768667;81;25573;-65
2024/04/04 06:27:23;;;;;;;18.40;11.25;;;;;;;3.48;87.87;100035.23;1769539;81;25395;-70
2024/04/04 06:29:50;;;;;;;23.25;15.45;;;;;;;3.64;88.65;100037.36;1768986;81;25502;-71
2024/04/04 06:32:16;;;;;;;16.48;10.35;;;;;;;3.75;87.61;100030.15;1768800;81;25599;-66
2024/04/04 06:34:42;;;;;;;22.37;10.58;;;;;;;3.86;87.05;100037.61;1768571;81;27531;-65
2024/04/04 06:37:08;;;;;;;20.05;10.53;;;;;;;3.96;87.05;100034.92;1768531;81;25637;-65
2024/04/04 06:39:36;;;;;;;15.78;9.53;;;;;;;4.08;86.99;100043.99;1768603;81;25475;-66
2024/04/04 06:42:05;;;;;;;13.95;9.28;;;;;;;4.18;86.69;100042.62;1768582;81;26730;-65
2024/04/04 06:44:32;;;;;;;14.25;8.60;;;;;;;4.30;86.55;100043.66;1768792;81;25618;-65
2024/04/04 06:47:00;;;;;;;17.23;8.70;;;;;;;4.35;85.77;100036.95;1768608;81;27511;-64
2024/04/04 06:49:29;;;;;;;14.25;8.95;;;;;;;4.42;85.01;100039.34;1768632;81;25393;-64
2024/04/04 06:51:57;;;;;;;11.75;8.58;;;;;;;4.52;85.50;100037.17;1768702;81;25470;-65
2024/04/04 06:54:23;;;;;;;14.18;8.00;;;;;;;4.59;84.54;100032.31;1768507;81;25466;-64
2024/04/04 06:56:49;;;;;;;18.90;9.28;;;;;;;4.63;84.42;100025.31;1768595;81;25176;-65
2024/04/04 06:59:15;;;;;;;16.37;8.95;;;;;;;4.68;83.90;100031.47;1768589;81;27573;-64
2024/04/04 07:01:46;;;;;;;15.70;8.43;;;;;;;4.73;84.18;100034.63;1768534;81;25619;-64
2024/04/04 07:04:12;;;;;;;32.95;18.98;;;;;;;4.81;83.18;100031.38;1768426;81;25602;-68
2024/04/04 07:06:38;;;;;;;37.55;22.75;;;;;;;4.81;83.20;100035.40;1768317;81;26063;-68
2024/04/04 07:09:06;;;;;;;14.03;8.25;;;;;;;4.90;83.37;100037.50;1768640;81;25414;-63
2024/04/04 07:11:33;;;;;;;15.25;8.85;;;;;;;4.99;82.68;100050.05;1764894;81;28077;-63
2024/04/04 07:13:59;;;;;;;12.85;7.20;;;;;;;5.07;82.85;100044.63;1762832;81;25569;-63
2024/04/04 07:16:26;;;;;;;11.70;7.65;;;;;;;5.10;81.60;100038.72;1762880;81;25399;-64
2024/04/04 07:18:53;;;;;;;10.53;6.80;;;;;;;5.16;80.74;100047.00;1762837;81;25510;-63
2024/04/04 07:21:19;;;;;;;11.28;6.75;;;;;;;5.21;81.15;100049.64;1762954;81;25628;-63
2024/04/04 07:23:45;;;;;;;10.78;6.45;;;;;;;5.29;80.90;100054.15;1762887;81;27545;-63
2024/04/04 07:26:11;;;;;;;11.35;6.70;;;;;;;5.36;80.41;100048.74;1762832;81;25714;-64
2024/04/04 07:28:38;;;;;;;11.75;6.47;;;;;;;5.43;80.37;100058.61;1762874;81;25454;-64
2024/04/04 07:31:06;;;;;;;10.55;6.00;;;;;;;5.55;80.85;100060.11;1762014;81;26037;-64
2024/04/04 07:33:32;;;;;;;8.63;5.47;;;;;;;5.67;79.59;100065.11;1761673;81;25613;-63
2024/04/04 07:35:58;;;;;;;10.05;6.17;;;;;;;5.69;79.55;100058.95;1762821;81;28115;-64
2024/04/04 07:38:24;;;;;;;8.58;5.92;;;;;;;5.73;79.31;100059.97;1762805;81;25561;-64
2024/04/04 07:40:51;;;;;;;8.10;6.25;;;;;;;5.77;79.26;100050.27;1762848;81;25572;-64
2024/04/04 07:43:18;;;;;;;12.55;6.70;;;;;;;5.84;79.85;100049.41;1762821;81;25624;-64
2024/04/04 07:45:45;;;;;;;10.63;6.47;;;;;;;5.96;80.14;100044.48;1762943;81;25471;-65
2024/04/04 07:48:17;;;;;;;7.87;6.15;;;;;;;6.08;79.05;100048.65;1762959;81;27585;-74
2024/04/04 07:50:47;;;;;;;52.78;36.70;;;;;;;6.10;78.76;100046.50;1763141;81;25411;-73
2024/04/04 07:53:13;;;;;;;10.32;7.20;;;;;;;6.14;77.73;100042.15;1763344;81;25540;-80
2024/04/04 07:55:40;;;;;;;10.25;6.87;;;;;;;6.19;78.43;100049.36;1731155;81;25539;-79
2024/04/04 07:58:06;;;;;;;11.97;6.58;;;;;;;6.32;79.35;100040.63;1763493;81;25584;-80
2024/04/04 08:00:33;;;;;;;8.50;6.30;;;;;;;6.46;79.18;100040.72;1731082;81;28135;-77
2024/04/04 08:02:59;;;;;;;23.98;16.80;;;;;;;6.56;77.94;100051.90;1763055;81;25612;-72
2024/04/04 08:05:29;;;;;;;153.50;124.78;;;;;;;6.61;77.49;100044.56;1763224;81;25702;-67
2024/04/04 08:07:55;;;;;;;9.50;6.65;;;;;;;6.73;77.55;100052.21;1763155;81;26958;-68
2024/04/04 08:10:22;;;;;;;10.78;5.72;;;;;;;6.80;76.83;100051.86;1763089;81;25608;-66
2024/04/04 08:12:51;;;;;;;9.55;6.15;;;;;;;6.86;77.00;100059.56;1763112;81;27682;-66
2024/04/04 08:15:20;;;;;;;9.90;6.30;;;;;;;6.83;76.44;100049.94;1763004;81;26179;-66
2024/04/04 08:17:50;;;;;;;9.35;6.37;;;;;;;6.86;76.29;100053.37;1763284;81;28980;-67
2024/04/04 08:20:16;;;;;;;8.03;5.53;;;;;;;6.84;76.03;100047.48;1763264;81;25627;-67
2024/04/04 08:22:46;;;;;;;7.67;5.85;;;;;;;6.82;76.02;100053.16;1763171;81;25648;-66
2024/04/04 08:25:19;;;;;;;7.42;5.12;;;;;;;6.79;75.99;100046.21;1763055;81;27565;-67
2024/04/04 08:27:45;;;;;;;9.63;6.55;;;;;;;6.80;76.50;100049.17;1763031;81;25564;-66
2024/04/04 08:30:15;;;;;;;7.87;5.95;;;;;;;6.79;76.08;100050.25;1763072;81;25601;-66
2024/04/04 08:32:43;;;;;;;9.80;6.42;;;;;;;6.76;76.50;100044.09;1763077;81;25504;-67
2024/04/04 08:35:09;;;;;;;9.45;6.65;;;;;;;6.81;76.83;100044.03;1763170;81;25530;-67
2024/04/04 08:37:38;;;;;;;9.68;5.70;;;;;;;6.81;76.47;100035.97;1763052;81;27837;-67
2024/04/04 08:40:08;;;;;;;8.95;6.10;;;;;;;6.89;77.52;100040.14;1762977;81;25651;-67
2024/04/04 08:42:35;;;;;;;9.18;6.08;;;;;;;6.99;77.07;100037.86;1763085;81;25582;-66
2024/04/04 08:45:03;;;;;;;9.65;6.30;;;;;;;7.06;77.09;100042.33;1763038;81;25623;-66
2024/04/04 08:47:30;;;;;;;9.35;6.65;;;;;;;7.17;77.31;100034.92;1763224;81;25671;-66
2024/04/04 08:49:57;;;;;;;9.40;6.22;;;;;;;7.32;78.31;100033.08;1763006;81;28207;-67
2024/04/04 08:52:25;;;;;;;9.63;6.30;;;;;;;7.58;79.75;100036.97;1763022;81;25504;-68
2024/04/04 08:54:51;;;;;;;10.82;7.25;;;;;;;7.89;79.25;100032.39;1763125;81;25579;-68
2024/04/04 08:57:21;;;;;;;10.43;6.72;;;;;;;8.08;78.23;100031.52;1763078;81;25209;-68
2024/04/04 08:59:59;;;;;;;9.60;7.08;;;;;;;8.26;78.55;100032.50;1763379;81;25552;-69
2024/04/04 09:02:26;;;;;;;10.25;6.80;;;;;;;8.44;77.67;100028.94;1763089;81;27438;-68
2024/04/04 09:05:06;;;;;;;9.73;7.00;;;;;;;8.58;75.98;100037.02;1763003;81;25477;-68
2024/04/04 09:07:37;;;;;;;10.60;7.33;;;;;;;8.50;75.61;100033.70;1763379;81;25557;-69
2024/04/04 09:10:06;;;;;;;15.10;8.93;;;;;;;8.54;76.24;100037.37;1763018;81;26193;-68
2024/04/04 09:12:32;;;;;;;98.33;38.15;;;;;;;8.63;76.90;100034.77;1767305;81;25695;-70
2024/04/04 09:15:01;;;;;;;14.93;8.63;;;;;;;8.75;77.38;100026.42;1768829;81;27593;-70
2024/04/04 09:17:27;;;;;;;11.67;7.53;;;;;;;8.87;77.54;100028.59;1769002;81;25769;-69
2024/04/04 09:19:59;;;;;;;11.43;8.05;;;;;;;8.99;76.20;100022.67;1768806;81;25599;-70
2024/04/04 09:22:26;;;;;;;11.25;7.22;;;;;;;9.10;77.24;100025.92;1768810;81;26019;-70
2024/04/04 09:25:00;;;;;;;12.00;7.30;;;;;;;9.29;76.83;100024.39;1768917;81;25377;-70
2024/04/04 09:27:28;;;;;;;9.33;6.97;;;;;;;9.33;76.63;100021.31;1738544;81;28164;-70
2024/04/04 09:29:56;;;;;;;11.70;8.08;;;;;;;9.38;75.80;100017.17;1768695;81;25685;-67
2024/04/04 09:32:26;;;;;;;10.40;7.20;;;;;;;9.41;75.03;100019.79;1768785;81;25646;-69
2024/04/04 09:34:55;;;;;;;11.80;8.10;;;;;;;9.38;74.87;100015.00;1768702;81;25556;-68
2024/04/04 09:37:25;;;;;;;11.93;8.78;;;;;;;9.49;76.17;100008.25;1768799;81;25570;-69
2024/04/04 09:39:53;;;;;;;15.45;10.90;;;;;;;9.70;75.71;100007.99;1769010;81;27376;-75
2024/04/04 09:42:23;;;;;;;15.60;10.98;;;;;;;9.89;75.76;100007.77;1768719;81;25729;-67
2024/04/04 09:44:51;;;;;;;11.03;7.75;;;;;;;10.07;76.49;100002.42;1768939;81;25453;-73
2024/04/04 09:47:21;;;;;;;11.25;7.90;;;;;;;10.51;74.94;100004.73;1738630;81;25454;-62
2024/04/04 09:49:53;;;;;;;11.35;7.60;;;;;;;10.66;74.96;99999.43;1768928;81;25207;-63
2024/04/04 09:52:22;;;;;;;12.15;8.28;;;;;;;10.88;74.84;99999.03;1739225;81;27464;-66
2024/04/04 09:54:49;;;;;;;10.88;7.67;;;;;;;10.94;73.10;99998.55;1736843;81;32885;-67
2024/04/04 09:57:16;;;;;;;13.48;7.75;;;;;;;11.03;72.96;100002.61;1766428;81;25710;-67
2024/04/04 09:59:43;;;;;;;11.53;8.08;;;;;;;11.08;72.86;100000.31;1767203;81;27629;-67
2024/04/04 10:02:09;;;;;;;10.80;7.60;;;;;;;11.16;72.62;99994.89;1767228;81;25790;-67
2024/04/04 10:04:37;;;;;;;11.57;7.62;;;;;;;11.15;71.52;99989.25;1767219;81;27546;-67
2024/04/04 10:07:05;;;;;;;11.85;8.33;;;;;;;11.23;70.62;99998.47;1767123;81;25738;-67
2024/04/04 10:09:41;;;;;;;12.78;8.03;;;;;;;11.27;70.94;99995.91;1767115;81;25670;-68
2024/04/04 10:12:10;;;;;;;13.05;8.80;;;;;;;11.38;71.53;99991.77;1760775;81;25668;-68
2024/04/04 10:14:36;;;;;;;13.35;9.03;;;;;;;11.41;70.70;99992.48;1751033;82;25585;-68
2024/04/04 10:17:06;;;;;;;13.05;8.90;;;;;;;11.46;70.16;99992.31;1750878;82;27509;-68
2024/04/04 10:19:36;;;;;;;14.20;9.18;;;;;;;11.50;70.09;99997.88;1750776;82;25397;-68
2024/04/04 10:22:08;;;;;;;12.40;8.88;;;;;;;11.49;69.57;100000.33;1750910;82;25450;-68
2024/04/04 10:24:34;;;;;;;11.93;8.83;;;;;;;11.57;71.03;100003.02;1749148;82;25897;-68
2024/04/04 10:27:07;;;;;;;14.20;9.10;;;;;;;11.79;71.13;99999.86;1751004;82;25617;-68
2024/04/04 10:29:35;;;;;;;13.20;8.88;;;;;;;11.92;70.44;99988.63;1750957;82;27549;-68
2024/04/04 10:32:03;;;;;;;13.98;9.93;;;;;;;12.06;70.32;99999.24;1750821;82;25571;-68
2024/04/04 10:34:30;;;;;;;18.62;10.38;;;;;;;12.00;68.72;99994.54;1751017;82;25630;-68
2024/04/04 10:36:56;;;;;;;14.83;9.83;;;;;;;12.00;68.72;99994.54;1750864;82;25549;-68
2024/04/04 10:39:23;;;;;;;14.60;9.90;;;;;;;11.94;67.83;99986.37;1750906;82;25457;-66
2024/04/04 10:41:52;;;;;;;15.90;9.00;;;;;;;11.92;68.46;99989.98;1750853;82;27553;-68
2024/04/04 10:44:20;;;;;;;16.45;10.45;;;;;;;11.99;68.56;99986.19;1750913;82;28098;-67
2024/04/04 10:46:51;;;;;;;14.23;9.40;;;;;;;12.01;68.31;99988.02;1751000;82;25391;-67
2024/04/04 10:49:21;;;;;;;15.70;10.10;;;;;;;11.98;69.02;99993.29;1750904;82;25524;-66
2024/04/04 10:52:02;;;;;;;15.08;10.15;;;;;;;12.05;68.91;99997.06;1750594;82;25396;-67
2024/04/04 10:54:30;;;;;;;15.48;9.80;;;;;;;12.02;68.38;99995.58;1751080;82;27489;-75
2024/04/04 10:56:58;;;;;;;24.37;17.30;;;;;;;12.09;69.06;99995.88;1750804;82;25552;-75
2024/04/04 10:59:25;;;;;;;18.12;11.35;;;;;;;12.19;69.50;99992.80;1750877;82;25578;-71
2024/04/04 11:02:02;;;;;;;15.32;10.03;;;;;;;12.30;69.46;99994.58;1751890;82;26013;-81
2024/04/04 11:04:29;;;;;;;14.70;9.78;;;;;;;12.42;69.55;99990.59;1751617;82;25268;-82
2024/04/04 11:06:57;;;;;;;16.12;10.03;;;;;;;12.52;69.38;99988.06;1701508;83;26003;-83
2024/04/04 11:09:27;;;;;;;16.35;10.25;;;;;;;12.67;68.49;99990.19;1667445;86;25698;-79
2024/04/04 11:11:54;;;;;;;;;;;;;;;12.75;67.46;99989.88;1690134;84;25644;-80
2024/04/04 11:14:23;;;;;;;13.98;9.60;;;;;;;13.02;69.13;99980.97;1696993;84;25536;-79
2024/04/04 11:16:54;;;;;;;13.53;9.73;;;;;;;13.71;69.54;99987.67;1721632;83;25622;-76
2024/04/04 11:19:23;;;;;;;13.00;9.23;;;;;;;14.16;67.68;99983.28;1721897;83;27554;-82
2024/04/04 11:21:51;;;;;;;13.65;9.28;;;;;;;14.69;68.64;99974.64;1720831;83;25862;-75
2024/04/04 11:24:21;;;;;;;14.05;9.10;;;;;;;15.16;66.75;99974.58;1721496;83;25668;-72
2024/04/04 11:26:47;;;;;;;12.40;8.80;;;;;;;15.29;65.60;99973.39;1721509;83;26757;-70